createdAt,value
2019-03-09T00:01:31.378Z,7.51
2019-03-09T00:04:40.465Z,7.38
2019-03-09T00:07:22.709Z,7.51
2019-03-09T00:10:05.844Z,7.38
2019-03-09T00:12:55.572Z,7.50
2019-03-09T00:15:47.075Z,7.51
2019-03-09T00:18:29.583Z,7.51
2019-03-09T00:21:19.359Z,7.44
2019-03-09T00:24:27.926Z,7.30
2019-03-09T00:27:18.123Z,7.28
2019-03-09T00:30:28.370Z,7.44
2019-03-09T00:33:18.168Z,7.48
2019-03-09T00:36:02.283Z,7.49
2019-03-09T00:38:52.061Z,7.49
2019-03-09T00:44:22.305Z,7.48
2019-03-09T00:47:12.065Z,7.48
2019-03-09T00:50:20.570Z,7.47
2019-03-09T00:53:10.627Z,7.33
2019-03-09T00:56:00.463Z,7.51
2019-03-09T00:58:50.242Z,7.53
2019-03-09T01:01:40.077Z,7.54
2019-03-09T01:04:29.803Z,7.56
2019-03-09T01:07:12.484Z,7.58
2019-03-09T01:10:02.234Z,7.46
2019-03-09T01:12:51.982Z,7.53
2019-03-09T01:15:41.720Z,7.54
2019-03-09T01:18:24.773Z,7.40
2019-03-09T01:21:14.583Z,7.50
2019-03-09T01:23:57.434Z,7.40
2019-03-09T01:26:39.333Z,7.30
2019-03-09T01:29:29.131Z,7.43
2019-03-09T01:32:18.975Z,7.42
2019-03-09T01:35:08.827Z,7.43
2019-03-09T01:37:58.586Z,7.43
2019-03-09T01:40:48.295Z,7.42
2019-03-09T01:43:30.222Z,7.41
2019-03-09T01:46:20.087Z,7.43
2019-03-09T01:49:09.959Z,7.40
2019-03-09T01:52:00.006Z,7.41
2019-03-09T01:54:49.778Z,7.38
2019-03-09T01:57:39.555Z,7.36
2019-03-09T02:00:29.391Z,7.40
2019-03-09T02:03:19.215Z,7.38
2019-03-09T02:06:08.993Z,7.21
2019-03-09T02:08:58.722Z,7.28
2019-03-09T02:11:48.498Z,7.24
2019-03-09T02:14:38.288Z,7.12
2019-03-09T02:17:28.057Z,7.09
2019-03-09T02:20:17.901Z,7.03
2019-03-09T02:23:07.653Z,6.92
2019-03-09T02:25:57.357Z,7.00
2019-03-09T02:28:47.037Z,7.09
2019-03-09T02:31:36.783Z,7.13
2019-03-09T02:34:18.789Z,7.16
2019-03-09T02:37:08.877Z,7.19
2019-03-09T02:43:07.076Z,7.19
2019-03-09T02:45:50.081Z,7.30
2019-03-09T02:57:16.129Z,7.35
2019-03-09T03:00:02.198Z,7.41
2019-03-09T03:02:48.155Z,7.43
2019-03-09T03:05:37.903Z,7.48
2019-03-09T03:08:46.752Z,7.39
2019-03-09T03:11:28.843Z,7.48
2019-03-09T03:14:18.750Z,7.48
2019-03-09T03:17:08.617Z,7.54
2019-03-09T03:20:17.492Z,7.39
2019-03-09T03:23:07.239Z,7.60
2019-03-09T03:25:56.980Z,7.68
2019-03-09T03:28:39.926Z,7.66
2019-03-09T03:31:29.869Z,7.70
2019-03-09T03:34:13.307Z,7.54
2019-03-09T03:37:03.085Z,7.70
2019-03-09T03:39:52.948Z,7.73
2019-03-09T03:42:42.677Z,7.75
2019-03-09T03:45:24.980Z,7.78
2019-03-09T03:48:14.746Z,7.75
2019-03-09T03:51:04.679Z,7.74
2019-03-09T03:53:54.389Z,7.77
2019-03-09T03:56:37.257Z,7.77
2019-03-09T03:59:26.994Z,7.82
2019-03-09T04:02:16.748Z,7.85
2019-03-09T04:05:06.750Z,7.92
2019-03-09T04:07:56.471Z,7.90
2019-03-09T04:10:38.767Z,7.83
2019-03-09T04:13:47.607Z,7.90
2019-03-09T04:16:37.294Z,7.92
2019-03-09T04:19:27.007Z,7.91
2019-03-09T04:22:16.727Z,7.86
2019-03-09T04:24:58.831Z,7.91
2019-03-09T04:27:48.593Z,7.92
2019-03-09T04:30:32.232Z,7.94
2019-03-09T04:33:22.056Z,7.90
2019-03-09T04:36:04.712Z,7.89
2019-03-09T04:38:54.431Z,7.82
2019-03-09T04:41:36.544Z,7.93
2019-03-09T04:44:27.216Z,7.92
2019-03-09T04:47:10.378Z,7.93
2019-03-09T04:50:00.119Z,7.92
2019-03-09T04:52:49.881Z,7.93
2019-03-09T04:55:39.618Z,7.98
2019-03-09T04:58:29.336Z,8.01
2019-03-09T05:01:11.531Z,8.04
2019-03-09T05:10:33.172Z,8.07
2019-03-09T05:13:23.252Z,8.06
2019-03-09T05:16:13.134Z,8.04
2019-03-09T05:19:02.899Z,8.06
2019-03-09T05:21:52.655Z,8.06
2019-03-09T05:24:42.425Z,8.08
2019-03-09T05:27:32.292Z,8.09
2019-03-09T05:30:44.629Z,8.09
2019-03-09T05:33:34.599Z,7.94
2019-03-09T05:36:24.381Z,8.13
2019-03-09T05:39:14.164Z,8.16
2019-03-09T05:42:03.964Z,8.11
2019-03-09T05:44:53.838Z,8.10
2019-03-09T05:47:43.639Z,8.07
2019-03-09T05:50:33.393Z,8.11
2019-03-09T05:53:23.657Z,8.15
2019-03-09T05:56:13.374Z,8.19
2019-03-09T05:59:03.086Z,8.19
2019-03-09T06:01:46.903Z,8.25
2019-03-09T06:04:36.673Z,8.28
2019-03-09T06:07:19.131Z,8.29
2019-03-09T06:13:02.268Z,8.32
2019-03-09T06:15:52.042Z,8.29
2019-03-09T06:18:41.905Z,8.25
2019-03-09T06:21:31.700Z,8.26
2019-03-09T06:24:21.472Z,8.22
2019-03-09T06:27:11.285Z,8.06
2019-03-09T06:30:01.028Z,7.93
2019-03-09T06:33:28.935Z,7.85
2019-03-09T06:36:30.887Z,7.85
2019-03-09T06:40:02.605Z,7.86
2019-03-09T06:42:49.859Z,7.84
2019-03-09T06:45:31.821Z,7.64
2019-03-09T06:48:21.619Z,7.82
2019-03-09T06:51:11.413Z,7.83
2019-03-09T06:54:01.358Z,7.86
2019-03-09T06:56:51.302Z,7.91
2019-03-09T06:59:41.133Z,7.82
2019-03-09T07:02:30.861Z,7.98
2019-03-09T07:05:20.588Z,7.98
2019-03-09T07:08:03.060Z,7.93
2019-03-09T07:10:52.842Z,7.77
2019-03-09T07:13:52.102Z,7.86
2019-03-09T07:16:15.482Z,7.89
2019-03-09T07:19:06.823Z,7.82
2019-03-09T07:21:37.518Z,7.78
2019-03-09T07:24:27.212Z,7.76
2019-03-09T07:27:09.135Z,7.77
2019-03-09T07:29:58.832Z,7.71
2019-03-09T07:33:07.373Z,7.68
2019-03-09T07:35:57.115Z,7.64
2019-03-09T07:38:46.819Z,7.59
2019-03-09T07:41:28.912Z,7.56
2019-03-09T07:44:18.736Z,7.49
2019-03-09T07:47:08.609Z,7.60
2019-03-09T07:49:58.410Z,7.57
2019-03-09T07:52:48.124Z,7.65
2019-03-09T07:55:30.476Z,7.67
2019-03-09T07:58:20.238Z,7.76
2019-03-09T08:01:10.090Z,7.73
2019-03-09T08:03:59.940Z,7.72
2019-03-09T08:06:49.680Z,7.73
2019-03-09T08:09:31.758Z,7.82
2019-03-09T08:12:21.524Z,7.91
2019-03-09T08:15:14.217Z,8.04
2019-03-09T08:18:03.767Z,8.07
2019-03-09T08:20:46.140Z,8.05
2019-03-09T08:23:35.884Z,8.05
2019-03-09T08:26:25.697Z,8.11
2019-03-09T08:29:15.481Z,8.02
2019-03-09T08:32:05.408Z,8.14
2019-03-09T08:34:55.216Z,8.19
2019-03-09T08:37:45.114Z,8.26
2019-03-09T08:40:34.892Z,8.28
2019-03-09T08:43:24.654Z,8.28
2019-03-09T08:46:06.985Z,8.30
2019-03-09T08:48:56.729Z,8.13
2019-03-09T08:51:39.147Z,8.21
2019-03-09T08:54:29.434Z,8.31
2019-03-09T08:57:19.251Z,8.28
2019-03-09T09:00:15.862Z,8.13
2019-03-09T09:06:13.335Z,8.43
2019-03-09T09:09:03.350Z,8.42
2019-03-09T09:12:12.241Z,8.58
2019-03-09T09:15:21.147Z,8.58
2019-03-09T09:18:11.076Z,8.82
2019-03-09T09:20:53.375Z,8.85
2019-03-09T09:23:43.107Z,8.85
2019-03-09T09:27:03.901Z,8.67
2019-03-09T09:29:45.839Z,8.73
2019-03-09T09:32:35.711Z,8.81
2019-03-09T09:35:25.663Z,8.90
2019-03-09T09:38:15.557Z,8.98
2019-03-09T09:41:05.235Z,8.92
2019-03-09T09:43:54.955Z,9.12
2019-03-09T09:46:37.329Z,9.53
2019-03-09T09:49:46.149Z,9.73
2019-03-09T09:52:29.967Z,9.86
2019-03-09T09:55:19.755Z,10.02
2019-03-09T09:58:01.967Z,10.05
2019-03-09T10:00:51.718Z,10.26
2019-03-09T10:03:34.317Z,10.15
2019-03-09T10:09:25.735Z,9.95
2019-03-09T10:12:15.455Z,9.94
2019-03-09T10:14:57.877Z,10.04
2019-03-09T10:18:06.746Z,10.03
2019-03-09T10:20:49.281Z,10.25
2019-03-09T10:23:39.041Z,10.53
2019-03-09T10:26:24.680Z,10.55
2019-03-09T10:29:13.387Z,10.49
2019-03-09T10:31:55.364Z,10.67
2019-03-09T10:34:45.097Z,10.77
2019-03-09T10:37:27.296Z,10.93
2019-03-09T10:40:17.262Z,10.93
2019-03-09T10:42:59.539Z,10.98
2019-03-09T10:45:49.245Z,10.89
2019-03-09T10:48:31.412Z,10.86
2019-03-09T10:51:21.263Z,10.96
2019-03-09T10:54:03.646Z,10.77
2019-03-09T10:56:53.451Z,10.93
2019-03-09T10:59:43.277Z,11.05
2019-03-09T11:02:33.051Z,10.90
2019-03-09T11:05:22.963Z,10.95
2019-03-09T11:08:31.789Z,10.90
2019-03-09T11:11:21.522Z,10.83
2019-03-09T11:14:04.394Z,10.92
2019-03-09T11:16:54.167Z,10.67
2019-03-09T11:19:43.956Z,10.72
2019-03-09T11:22:33.908Z,10.86
2019-03-09T11:25:23.642Z,11.00
2019-03-09T11:28:14.746Z,11.14
2019-03-09T11:31:17.404Z,11.11
2019-03-09T11:33:59.925Z,10.96
2019-03-09T11:36:49.735Z,10.84
2019-03-09T11:39:32.593Z,10.79
2019-03-09T11:42:15.932Z,10.66
2019-03-09T11:44:58.664Z,10.94
2019-03-09T11:47:48.443Z,10.95
2019-03-09T11:50:38.216Z,11.25
2019-03-09T11:53:47.058Z,11.30
2019-03-09T11:56:36.891Z,11.40
2019-03-09T11:59:26.703Z,11.39
2019-03-09T12:02:16.514Z,11.19
2019-03-09T12:05:06.803Z,11.18
2019-03-09T12:08:15.650Z,11.23
2019-03-09T12:11:05.462Z,11.29
2019-03-09T12:13:55.234Z,11.42
2019-03-09T12:16:45.076Z,11.43
2019-03-09T12:19:34.856Z,11.42
2019-03-09T12:22:24.643Z,11.48
2019-03-09T12:25:14.603Z,11.50
2019-03-09T12:28:04.339Z,11.58
2019-03-09T12:30:54.100Z,11.56
2019-03-09T12:33:36.266Z,11.38
2019-03-09T12:36:26.082Z,11.55
2019-03-09T12:39:15.931Z,11.65
2019-03-09T12:42:05.725Z,11.77
2019-03-09T12:48:00.777Z,11.82
2019-03-09T12:50:43.648Z,11.85
2019-03-09T12:53:33.364Z,11.66
2019-03-09T12:56:23.172Z,11.48
2019-03-09T12:59:12.999Z,11.56
2019-03-09T13:02:02.771Z,11.52
2019-03-09T13:04:52.551Z,11.50
2019-03-09T13:08:01.434Z,11.40
2019-03-09T13:10:51.242Z,11.45
2019-03-09T13:13:41.029Z,11.50
2019-03-09T13:16:30.810Z,11.57
2019-03-09T13:19:20.579Z,11.62
2019-03-09T13:22:10.316Z,11.79
2019-03-09T13:25:00.139Z,11.68
2019-03-09T13:27:50.051Z,11.73
2019-03-09T13:30:39.757Z,11.43
2019-03-09T13:33:29.487Z,11.62
2019-03-09T13:36:19.201Z,11.57
2019-03-09T13:39:03.087Z,11.55
2019-03-09T13:44:54.531Z,11.64
2019-03-09T13:47:44.255Z,11.79
2019-03-09T13:50:48.639Z,11.73
2019-03-09T13:53:19.085Z,11.58
2019-03-09T13:56:08.965Z,11.61
2019-03-09T13:58:58.700Z,11.39
2019-03-09T14:01:41.429Z,11.20
2019-03-09T14:04:43.768Z,11.25
2019-03-09T14:07:29.595Z,11.11
2019-03-09T14:10:19.313Z,11.44
2019-03-09T14:13:01.687Z,11.58
2019-03-09T14:15:51.467Z,11.51
2019-03-09T14:18:34.025Z,11.63
2019-03-09T14:21:23.905Z,11.61
2019-03-09T14:24:13.807Z,11.57
2019-03-09T14:27:03.607Z,11.56
2019-03-09T14:29:53.509Z,11.45
2019-03-09T14:32:43.318Z,11.20
2019-03-09T14:35:33.143Z,11.27
2019-03-09T14:38:22.994Z,11.21
2019-03-09T14:41:12.759Z,11.22
2019-03-09T14:44:02.569Z,11.06
2019-03-09T14:46:52.295Z,11.02
2019-03-09T14:49:34.733Z,10.93
2019-03-09T14:52:24.460Z,10.83
2019-03-09T14:55:06.841Z,10.68
2019-03-09T14:57:56.589Z,10.49
2019-03-09T15:00:38.929Z,10.27
2019-03-09T15:03:28.676Z,9.98
2019-03-09T15:06:10.898Z,9.90
2019-03-09T15:09:00.627Z,9.72
2019-03-09T15:11:43.114Z,9.59
2019-03-09T15:14:32.844Z,9.56
2019-03-09T15:17:15.454Z,9.47
2019-03-09T15:20:05.464Z,9.30
2019-03-09T15:22:48.320Z,9.20
2019-03-09T15:25:38.052Z,8.99
2019-03-09T15:28:20.953Z,9.17
2019-03-09T15:31:10.697Z,8.97
2019-03-09T15:33:55.089Z,9.09
2019-03-09T15:36:44.826Z,9.05
2019-03-09T15:39:27.377Z,9.03
2019-03-09T15:42:17.072Z,8.99
2019-03-09T15:44:59.631Z,8.99
2019-03-09T15:47:49.327Z,9.02
2019-03-09T15:50:31.376Z,9.08
2019-03-09T15:53:21.098Z,9.05
2019-03-09T15:56:03.584Z,9.11
2019-03-09T15:58:53.325Z,9.09
2019-03-09T16:01:35.724Z,9.12
2019-03-09T16:04:44.553Z,9.12
2019-03-09T16:07:26.676Z,9.13
2019-03-09T16:10:35.534Z,9.10
2019-03-09T16:13:32.116Z,9.02
2019-03-09T16:16:21.867Z,9.17
2019-03-09T16:19:04.721Z,9.18
2019-03-09T16:21:54.583Z,9.18
2019-03-09T16:25:03.436Z,9.21
2019-03-09T16:27:53.254Z,9.25
2019-03-09T16:30:43.086Z,9.21
2019-03-09T16:33:32.951Z,9.13
2019-03-09T16:36:22.757Z,9.19
2019-03-09T16:39:13.513Z,9.18
2019-03-09T16:41:56.417Z,9.21
2019-03-09T16:44:46.118Z,9.23
2019-03-09T16:47:28.205Z,9.27
2019-03-09T16:50:17.933Z,9.30
2019-03-09T16:53:00.264Z,9.19
2019-03-09T16:55:49.985Z,9.29
2019-03-09T16:58:31.959Z,9.29
2019-03-09T17:01:21.676Z,9.37
2019-03-09T17:04:03.673Z,9.30
2019-03-09T17:09:54.659Z,9.30
2019-03-09T17:12:44.361Z,9.22
2019-03-09T17:15:26.733Z,9.34
2019-03-09T17:18:16.461Z,9.36
2019-03-09T17:20:59.152Z,9.39
2019-03-09T17:23:48.939Z,9.40
2019-03-09T17:26:31.417Z,9.43
2019-03-09T17:29:21.145Z,9.43
2019-03-09T17:32:03.361Z,9.27
2019-03-09T17:34:53.072Z,9.40
2019-03-09T17:37:35.214Z,9.42
2019-03-09T17:40:24.951Z,9.45
2019-03-09T17:43:07.259Z,9.39
2019-03-09T17:45:57.007Z,9.50
2019-03-09T17:48:46.703Z,9.47
2019-03-09T17:51:29.483Z,9.54
2019-03-09T17:54:12.868Z,9.56
2019-03-09T17:56:54.782Z,9.52
2019-03-09T17:59:44.567Z,9.58
2019-03-09T18:02:26.968Z,9.61
2019-03-09T18:08:12.221Z,9.58
2019-03-09T18:10:50.978Z,9.72
2019-03-09T18:14:07.017Z,9.75
2019-03-09T18:16:52.456Z,9.82
2019-03-09T18:19:35.579Z,9.82
2019-03-09T18:22:25.309Z,9.82
2019-03-09T18:28:18.787Z,9.99
2019-03-09T18:31:08.564Z,10.06
2019-03-09T18:33:58.333Z,10.08
2019-03-09T18:36:48.043Z,9.93
2019-03-09T18:39:30.277Z,10.01
2019-03-09T18:42:39.124Z,10.04
2019-03-09T18:45:28.926Z,10.03
2019-03-09T18:48:18.697Z,10.02
2019-03-09T18:51:08.476Z,10.05
2019-03-09T18:53:58.469Z,10.06
2019-03-09T18:56:48.232Z,10.05
2019-03-09T18:59:38.024Z,10.05
2019-03-09T19:02:27.852Z,10.10
2019-03-09T19:05:17.739Z,10.07
2019-03-09T19:08:07.527Z,10.13
2019-03-09T19:10:57.417Z,10.12
2019-03-09T19:13:40.703Z,10.11
2019-03-09T19:16:22.887Z,10.13
2019-03-09T19:19:12.615Z,9.97
2019-03-09T19:21:55.479Z,10.09
2019-03-09T19:24:45.307Z,10.10
2019-03-09T19:27:35.058Z,10.09
2019-03-09T19:30:24.936Z,10.17
2019-03-09T19:33:14.705Z,10.15
2019-03-09T19:36:04.451Z,10.12
2019-03-09T19:39:13.334Z,10.12
2019-03-09T19:42:03.174Z,10.27
2019-03-09T19:44:52.922Z,10.31
2019-03-09T19:47:42.693Z,10.31
2019-03-09T19:53:28.303Z,10.34
2019-03-09T19:56:18.120Z,10.36
2019-03-09T19:59:07.949Z,10.37
2019-03-09T20:01:57.898Z,10.40
2019-03-09T20:04:47.712Z,10.40
2019-03-09T20:07:37.483Z,10.39
2019-03-09T20:10:40.672Z,10.23
2019-03-09T20:13:23.399Z,10.36
2019-03-09T20:16:13.116Z,10.21
2019-03-09T20:21:51.484Z,10.37
2019-03-09T20:24:41.290Z,10.37
2019-03-09T20:27:31.318Z,10.18
2019-03-09T20:33:24.767Z,10.29
2019-03-09T20:36:07.446Z,10.23
2019-03-09T20:38:57.247Z,10.20
2019-03-09T20:42:06.080Z,10.20
2019-03-09T20:44:49.001Z,10.04
2019-03-09T20:47:38.779Z,10.15
2019-03-09T20:50:28.650Z,10.09
2019-03-09T20:53:18.510Z,10.15
2019-03-09T20:56:20.550Z,10.14
2019-03-09T20:59:03.050Z,10.12
2019-03-09T21:01:52.788Z,10.09
2019-03-09T21:04:34.831Z,10.06
2019-03-09T21:07:24.552Z,10.10
2019-03-09T21:10:07.081Z,10.10
2019-03-09T21:13:01.662Z,10.08
2019-03-09T21:15:44.216Z,10.09
2019-03-09T21:18:33.936Z,9.99
2019-03-09T21:21:16.341Z,10.06
2019-03-09T21:24:06.047Z,9.97
2019-03-09T21:26:55.755Z,10.00
2019-03-09T21:29:45.494Z,9.97
2019-03-09T21:32:35.201Z,9.83
2019-03-09T21:35:25.070Z,9.95
2019-03-09T21:38:14.796Z,9.95
2019-03-09T21:41:23.282Z,9.95
2019-03-09T21:44:06.063Z,9.95
2019-03-09T21:46:55.895Z,9.90
2019-03-09T21:49:45.704Z,9.90
2019-03-09T21:52:35.483Z,9.86
2019-03-09T21:55:25.223Z,9.86
2019-03-09T21:58:15.061Z,9.87
2019-03-09T22:01:04.785Z,9.87
2019-03-09T22:03:54.523Z,9.86
2019-03-09T22:06:37.485Z,9.87
2019-03-09T22:09:27.274Z,9.86
2019-03-09T22:12:17.059Z,9.87
2019-03-09T22:15:07.658Z,9.83
2019-03-09T22:17:57.563Z,9.85
2019-03-09T22:20:47.344Z,9.78
2019-03-09T22:23:44.043Z,9.74
2019-03-09T22:26:21.160Z,9.72
2019-03-09T22:29:10.929Z,9.82
2019-03-09T22:31:41.566Z,9.68
2019-03-09T22:34:31.344Z,9.80
2019-03-09T22:37:21.165Z,9.76
2019-03-09T22:40:11.324Z,9.80
2019-03-09T22:43:01.134Z,9.82
2019-03-09T22:45:50.953Z,9.76
2019-03-09T22:48:40.711Z,9.82
2019-03-09T22:51:30.967Z,9.81
2019-03-09T22:54:20.831Z,9.65
2019-03-09T23:03:31.804Z,9.84
2019-03-09T23:06:21.530Z,9.84
2019-03-09T23:09:05.446Z,9.82
2019-03-09T23:11:55.147Z,9.82
2019-03-09T23:14:37.574Z,9.83
2019-03-09T23:20:28.582Z,9.70
2019-03-09T23:23:18.306Z,9.75
2019-03-09T23:26:00.762Z,9.85
2019-03-09T23:28:51.386Z,9.80
2019-03-09T23:31:35.729Z,9.86
2019-03-09T23:34:25.884Z,9.87
2019-03-09T23:37:10.210Z,9.84
2019-03-09T23:43:07.293Z,9.82
2019-03-09T23:49:01.667Z,9.88
2019-03-09T23:54:50.193Z,9.89
2019-03-09T23:58:01.495Z,9.88
